createdAt,value
2018-03-04T00:00:19.392Z,43.08
2018-03-04T00:02:46.949Z,42.72
2018-03-04T00:05:14.447Z,38.20
2018-03-04T00:07:41.944Z,40.25
2018-03-04T00:10:10.987Z,40.75
2018-03-04T00:12:38.493Z,45.92
2018-03-04T00:15:06.102Z,47.90
2018-03-04T00:17:34.356Z,48.65
2018-03-04T00:20:01.962Z,45.22
2018-03-04T00:22:41.415Z,43.55
2018-03-04T00:25:09.716Z,44.65
2018-03-04T00:27:37.320Z,40.63
2018-03-04T00:30:04.839Z,43.08
2018-03-04T00:32:33.124Z,52.75
2018-03-04T00:35:02.450Z,52.85
2018-03-04T00:37:29.954Z,53.15
2018-03-04T00:39:57.477Z,49.03
2018-03-04T00:42:25.764Z,42.58
2018-03-04T00:44:53.347Z,48.20
2018-03-04T00:47:20.842Z,45.42
2018-03-04T00:49:48.475Z,45.85
2018-03-04T00:52:15.971Z,45.65
2018-03-04T00:54:43.495Z,47.03
2018-03-04T00:57:11.007Z,40.33
2018-03-04T00:59:39.272Z,40.95
2018-03-04T01:02:07.541Z,45.75
2018-03-04T01:04:35.063Z,45.90
2018-03-04T01:07:02.595Z,46.37
2018-03-04T01:09:30.084Z,44.97
2018-03-04T01:11:58.351Z,46.55
2018-03-04T01:14:25.866Z,41.42
2018-03-04T01:16:53.381Z,43.00
2018-03-04T01:19:20.881Z,42.78
2018-03-04T01:21:49.187Z,48.63
2018-03-04T01:24:16.701Z,44.70
2018-03-04T01:26:44.210Z,53.30
2018-03-04T01:29:12.508Z,45.00
2018-03-04T01:31:40.788Z,44.50
2018-03-04T01:34:09.076Z,49.45
2018-03-04T01:36:37.334Z,51.25
2018-03-04T01:39:04.856Z,41.55
2018-03-04T01:41:32.337Z,50.47
2018-03-04T01:43:59.831Z,45.55
2018-03-04T01:46:27.333Z,44.42
2018-03-04T01:48:55.621Z,45.25
2018-03-04T01:54:24.704Z,41.37
2018-03-04T01:56:52.196Z,46.95
2018-03-04T01:59:19.709Z,45.80
2018-03-04T02:01:47.274Z,48.65
2018-03-04T02:04:14.770Z,40.47
2018-03-04T02:06:42.324Z,50.55
2018-03-04T02:09:10.571Z,48.87
2018-03-04T02:11:38.072Z,52.53
2018-03-04T02:14:05.647Z,48.15
2018-03-04T02:16:33.944Z,55.92
2018-03-04T02:19:02.228Z,43.70
2018-03-04T02:21:30.521Z,50.50
2018-03-04T02:23:58.832Z,46.03
2018-03-04T02:26:26.341Z,49.10
2018-03-04T02:28:54.722Z,50.88
2018-03-04T02:31:22.251Z,46.92
2018-03-04T02:33:50.510Z,41.75
2018-03-04T02:36:18.126Z,44.22
2018-03-04T02:38:45.713Z,48.15
2018-03-04T02:41:13.303Z,51.83
2018-03-04T02:43:40.828Z,52.08
2018-03-04T02:46:09.091Z,51.03
2018-03-04T02:48:36.657Z,44.33
2018-03-04T02:51:04.285Z,55.10
2018-03-04T02:53:31.755Z,52.15
2018-03-04T02:55:59.247Z,48.90
2018-03-04T02:58:26.759Z,49.10
2018-03-04T03:00:55.042Z,55.40
2018-03-04T03:03:22.624Z,47.97
2018-03-04T03:05:51.014Z,58.45
2018-03-04T03:08:19.282Z,50.85
2018-03-04T03:10:46.826Z,48.42
2018-03-04T03:13:14.325Z,53.63
2018-03-04T03:15:41.877Z,46.05
2018-03-04T03:18:09.382Z,44.30
2018-03-04T03:20:37.657Z,53.30
2018-03-04T03:23:05.238Z,53.53
2018-03-04T03:25:33.515Z,47.53
2018-03-04T03:28:01.238Z,52.45
2018-03-04T03:30:28.781Z,48.85
2018-03-04T03:32:57.045Z,55.40
2018-03-04T03:35:24.601Z,51.58
2018-03-04T03:37:52.242Z,50.15
2018-03-04T03:40:19.737Z,50.12
2018-03-04T03:42:47.234Z,57.65
2018-03-04T03:45:15.484Z,44.25
2018-03-04T03:47:43.082Z,49.15
2018-03-04T03:50:10.569Z,53.67
2018-03-04T03:52:38.872Z,56.90
2018-03-04T03:55:07.140Z,48.22
2018-03-04T03:57:34.695Z,42.78
2018-03-04T04:00:02.214Z,57.67
2018-03-04T04:02:29.701Z,53.38
2018-03-04T04:04:57.207Z,51.70
2018-03-04T04:07:24.718Z,58.38
2018-03-04T04:09:52.996Z,51.35
2018-03-04T04:12:21.256Z,55.95
2018-03-04T04:14:48.778Z,61.40
2018-03-04T04:17:16.383Z,54.78
2018-03-04T04:19:43.911Z,53.90
2018-03-04T04:22:11.425Z,60.30
2018-03-04T04:24:38.939Z,53.97
2018-03-04T04:27:07.210Z,59.30
2018-03-04T04:29:34.748Z,66.10
2018-03-04T04:32:02.256Z,60.63
2018-03-04T04:34:29.736Z,57.92
2018-03-04T04:36:57.994Z,62.40
2018-03-04T04:39:25.477Z,55.08
2018-03-04T04:41:53.005Z,57.10
2018-03-04T04:44:20.543Z,51.45
2018-03-04T04:46:48.016Z,57.13
2018-03-04T04:49:16.294Z,50.17
2018-03-04T04:51:45.164Z,51.45
2018-03-04T04:54:12.662Z,52.58
2018-03-04T04:56:40.969Z,52.88
2018-03-04T04:59:08.527Z,55.35
2018-03-04T05:01:36.799Z,54.92
2018-03-04T05:04:04.321Z,54.40
2018-03-04T05:06:31.858Z,46.70
2018-03-04T05:09:00.129Z,49.90
2018-03-04T05:11:27.666Z,57.08
2018-03-04T05:13:55.173Z,53.87
2018-03-04T05:16:22.679Z,52.25
2018-03-04T05:18:50.255Z,53.15
2018-03-04T05:21:17.757Z,54.08
2018-03-04T05:23:45.294Z,55.60
2018-03-04T05:26:12.799Z,53.50
2018-03-04T05:28:40.295Z,48.13
2018-03-04T05:31:07.825Z,56.35
2018-03-04T05:33:35.327Z,50.12
2018-03-04T05:36:02.915Z,56.70
2018-03-04T05:38:30.414Z,54.15
2018-03-04T05:40:57.923Z,54.08
2018-03-04T05:43:25.519Z,53.28
2018-03-04T05:45:53.015Z,52.20
2018-03-04T05:48:20.528Z,64.60
2018-03-04T05:50:48.028Z,55.33
2018-03-04T05:53:15.528Z,50.58
2018-03-04T05:55:43.050Z,57.35
2018-03-04T05:58:10.526Z,60.05
2018-03-04T06:00:38.860Z,50.65
2018-03-04T06:03:06.356Z,62.90
2018-03-04T06:05:33.952Z,49.33
2018-03-04T06:08:01.462Z,56.78
2018-03-04T06:10:29.722Z,53.67
2018-03-04T06:12:57.206Z,56.72
2018-03-04T06:15:25.471Z,58.75
2018-03-04T06:17:52.956Z,56.65
2018-03-04T06:20:21.214Z,54.20
2018-03-04T06:22:48.809Z,56.85
2018-03-04T06:25:17.093Z,63.15
2018-03-04T06:27:44.582Z,58.22
2018-03-04T06:30:12.865Z,52.30
2018-03-04T06:32:41.270Z,56.83
2018-03-04T06:35:08.890Z,57.65
2018-03-04T06:37:36.385Z,54.47
2018-03-04T06:40:03.922Z,53.20
2018-03-04T06:42:31.416Z,55.95
2018-03-04T06:44:59.127Z,58.63
2018-03-04T06:47:27.389Z,45.53
2018-03-04T06:49:54.918Z,54.85
2018-03-04T06:52:22.474Z,53.70
2018-03-04T06:54:50.104Z,51.88
2018-03-04T06:57:17.602Z,51.15
2018-03-04T06:59:45.901Z,57.70
2018-03-04T07:02:13.417Z,52.67
2018-03-04T07:04:41.085Z,53.63
2018-03-04T07:07:08.586Z,48.25
2018-03-04T07:09:36.098Z,49.78
2018-03-04T07:12:03.585Z,54.10
2018-03-04T07:14:31.102Z,59.30
2018-03-04T07:16:59.385Z,50.15
2018-03-04T07:19:26.879Z,55.75
2018-03-04T07:21:54.436Z,49.65
2018-03-04T07:24:22.727Z,51.20
2018-03-04T07:26:51.759Z,50.05
2018-03-04T07:29:19.285Z,51.03
2018-03-04T07:31:46.792Z,48.53
2018-03-04T07:34:14.878Z,51.13
2018-03-04T07:36:42.509Z,49.78
2018-03-04T07:39:10.069Z,54.88
2018-03-04T07:41:37.574Z,50.45
2018-03-04T07:44:05.854Z,49.65
2018-03-04T07:46:34.136Z,48.33
2018-03-04T07:49:01.821Z,49.05
2018-03-04T07:51:29.364Z,52.38
2018-03-04T07:53:56.923Z,50.78
2018-03-04T07:56:24.583Z,47.28
2018-03-04T07:58:52.098Z,50.67
2018-03-04T08:01:19.697Z,47.78
2018-03-04T08:03:47.245Z,50.85
2018-03-04T08:06:15.566Z,50.28
2018-03-04T08:08:43.094Z,55.03
2018-03-04T08:11:10.790Z,56.90
2018-03-04T08:13:39.099Z,52.05
2018-03-04T08:16:06.629Z,49.97
2018-03-04T08:18:34.177Z,47.10
2018-03-04T08:21:01.671Z,46.30
2018-03-04T08:23:29.197Z,60.15
2018-03-04T08:26:08.707Z,47.97
2018-03-04T08:28:36.978Z,45.05
2018-03-04T08:31:04.702Z,52.67
2018-03-04T08:33:32.230Z,46.17
2018-03-04T08:35:59.788Z,56.22
2018-03-04T08:38:27.384Z,58.25
2018-03-04T08:40:55.703Z,56.67
2018-03-04T08:43:23.238Z,55.17
2018-03-04T08:45:50.837Z,49.55
2018-03-04T08:48:20.949Z,49.60
2018-03-04T08:50:48.666Z,47.60
2018-03-04T08:53:16.215Z,49.65
2018-03-04T08:55:43.790Z,50.67
2018-03-04T08:58:11.345Z,61.60
2018-03-04T09:00:39.620Z,51.40
2018-03-04T09:03:07.930Z,51.65
2018-03-04T09:05:36.227Z,55.15
2018-03-04T09:08:03.848Z,54.92
2018-03-04T09:10:31.372Z,50.40
2018-03-04T09:13:00.111Z,48.83
2018-03-04T09:15:27.665Z,54.10
2018-03-04T09:17:55.216Z,55.53
2018-03-04T09:20:22.811Z,54.03
2018-03-04T09:22:50.342Z,52.45
2018-03-04T09:25:18.626Z,49.00
2018-03-04T09:27:47.058Z,53.92
2018-03-04T09:30:14.578Z,55.17
2018-03-04T09:32:42.142Z,52.15
2018-03-04T09:35:09.764Z,52.72
2018-03-04T09:37:37.272Z,58.25
2018-03-04T09:40:06.304Z,50.53
2018-03-04T09:42:34.721Z,48.97
2018-03-04T09:45:02.295Z,55.17
2018-03-04T09:47:29.843Z,51.03
2018-03-04T09:49:57.431Z,54.22
2018-03-04T09:52:24.951Z,56.97
2018-03-04T09:54:52.525Z,64.97
2018-03-04T09:57:20.073Z,54.33
2018-03-04T09:59:47.585Z,54.60
2018-03-04T10:02:15.139Z,66.82
2018-03-04T10:04:42.727Z,51.88
2018-03-04T10:07:10.327Z,59.30
2018-03-04T10:09:37.824Z,59.67
2018-03-04T10:12:05.405Z,57.55
2018-03-04T10:14:32.923Z,62.33
2018-03-04T10:17:01.214Z,57.22
2018-03-04T10:19:29.490Z,57.05
2018-03-04T10:21:57.049Z,66.97
2018-03-04T10:24:24.554Z,71.62
2018-03-04T10:26:52.117Z,61.17
2018-03-04T10:29:20.366Z,64.50
2018-03-04T10:31:47.895Z,62.90
2018-03-04T10:34:15.444Z,58.50
2018-03-04T10:36:43.718Z,56.13
2018-03-04T10:39:12.056Z,65.53
2018-03-04T10:41:39.671Z,64.80
2018-03-04T10:44:07.184Z,60.80
2018-03-04T10:46:34.744Z,60.60
2018-03-04T10:49:03.112Z,72.33
2018-03-04T10:51:30.643Z,70.10
2018-03-04T10:53:58.164Z,69.90
2018-03-04T10:56:26.463Z,61.60
2018-03-04T10:58:54.743Z,66.97
2018-03-04T11:01:28.913Z,61.40
2018-03-04T11:03:56.494Z,63.00
2018-03-04T11:06:23.938Z,62.47
2018-03-04T11:08:51.513Z,64.90
2018-03-04T11:11:19.053Z,68.33
2018-03-04T11:13:47.322Z,61.20
2018-03-04T11:16:15.095Z,65.33
2018-03-04T11:18:42.629Z,60.43
2018-03-04T11:21:10.150Z,64.77
2018-03-04T11:23:37.953Z,68.60
2018-03-04T11:26:06.216Z,67.53
2018-03-04T11:28:33.801Z,67.07
2018-03-04T11:31:01.290Z,68.23
2018-03-04T11:33:28.847Z,67.63
2018-03-04T11:35:57.236Z,69.20
2018-03-04T11:38:25.531Z,65.13
2018-03-04T11:40:53.808Z,59.50
2018-03-04T11:43:22.090Z,65.10
2018-03-04T11:45:50.081Z,72.17
2018-03-04T11:48:18.350Z,61.77
2018-03-04T11:50:45.896Z,63.00
2018-03-04T11:53:13.792Z,66.17
2018-03-04T11:55:41.348Z,68.70
2018-03-04T11:58:08.837Z,65.63
2018-03-04T12:00:36.358Z,64.63
2018-03-04T12:03:03.858Z,75.00
2018-03-04T12:05:31.496Z,72.13
2018-03-04T12:07:59.012Z,69.33
2018-03-04T12:10:26.535Z,69.00
2018-03-04T12:12:54.048Z,67.00
2018-03-04T12:15:21.690Z,65.33
2018-03-04T12:17:49.494Z,66.03
2018-03-04T12:20:17.030Z,65.47
2018-03-04T12:22:44.609Z,63.00
2018-03-04T12:25:12.165Z,67.73
2018-03-04T12:27:39.749Z,60.73
2018-03-04T12:30:07.258Z,65.50
2018-03-04T12:32:34.763Z,64.00
2018-03-04T12:35:03.043Z,74.53
2018-03-04T12:37:31.314Z,73.53
2018-03-04T12:39:58.980Z,69.03
2018-03-04T12:42:26.498Z,68.73
2018-03-04T12:44:54.224Z,68.80
2018-03-04T12:47:21.717Z,70.00
2018-03-04T12:49:49.323Z,64.80
2018-03-04T12:52:17.096Z,66.50
2018-03-04T12:54:44.661Z,70.30
2018-03-04T12:57:13.043Z,71.67
2018-03-04T12:59:41.354Z,64.20
2018-03-04T13:02:08.885Z,73.40
2018-03-04T13:04:36.433Z,64.23
2018-03-04T13:07:04.169Z,66.40
2018-03-04T13:09:31.675Z,71.67
2018-03-04T13:11:59.194Z,63.20
2018-03-04T13:14:27.552Z,66.80
2018-03-04T13:16:55.093Z,70.77
2018-03-04T13:19:22.685Z,88.23
2018-03-04T13:21:50.306Z,70.20
2018-03-04T13:24:18.579Z,65.33
2018-03-04T13:26:46.861Z,66.87
2018-03-04T13:29:15.192Z,70.83
2018-03-04T13:31:42.739Z,68.40
2018-03-04T13:34:11.245Z,64.97
2018-03-04T13:36:39.633Z,66.10
2018-03-04T13:39:07.424Z,70.87
2018-03-04T13:41:34.979Z,62.17
2018-03-04T13:44:02.585Z,67.53
2018-03-04T13:46:30.193Z,65.73
2018-03-04T13:48:57.727Z,71.30
2018-03-04T13:51:25.475Z,69.27
2018-03-04T13:53:53.047Z,60.97
2018-03-04T13:56:20.656Z,64.03
2018-03-04T13:58:48.197Z,65.10
2018-03-04T14:01:15.748Z,59.80
2018-03-04T14:03:44.044Z,65.00
2018-03-04T14:06:12.342Z,70.70
2018-03-04T14:08:39.995Z,60.47
2018-03-04T14:11:07.586Z,79.70
2018-03-04T14:13:35.326Z,65.03
2018-03-04T14:16:03.086Z,68.17
2018-03-04T14:18:30.610Z,63.47
2018-03-04T14:20:58.127Z,66.30
2018-03-04T14:23:25.669Z,66.93
2018-03-04T14:25:53.207Z,63.07
2018-03-04T14:28:21.516Z,69.83
2018-03-04T14:30:49.270Z,70.23
2018-03-04T14:33:17.537Z,72.53
2018-03-04T14:35:45.643Z,67.83
2018-03-04T14:38:13.911Z,66.27
2018-03-04T14:40:41.505Z,70.43
2018-03-04T14:43:09.861Z,66.60
2018-03-04T14:45:37.478Z,66.03
2018-03-04T14:48:05.762Z,68.57
2018-03-04T14:50:34.054Z,66.03
2018-03-04T14:53:02.320Z,71.00
2018-03-04T14:55:29.837Z,65.80
2018-03-04T14:57:57.331Z,69.40
2018-03-04T15:00:24.851Z,63.00
2018-03-04T15:02:53.108Z,67.53
2018-03-04T15:05:21.413Z,64.10
2018-03-04T15:07:49.810Z,66.73
2018-03-04T15:10:18.114Z,63.67
2018-03-04T15:12:46.412Z,66.20
2018-03-04T15:15:14.088Z,55.80
2018-03-04T15:17:41.608Z,68.73
2018-03-04T15:20:09.127Z,71.53
2018-03-04T15:22:36.621Z,67.27
2018-03-04T15:25:04.142Z,68.00
2018-03-04T15:27:32.435Z,72.43
2018-03-04T15:30:00.750Z,63.57
2018-03-04T15:32:28.291Z,60.57
2018-03-04T15:34:56.568Z,70.33
2018-03-04T15:37:24.099Z,64.10
2018-03-04T15:39:51.626Z,69.00
2018-03-04T15:42:19.885Z,68.10
2018-03-04T15:44:47.468Z,71.30
2018-03-04T15:47:15.764Z,65.27
2018-03-04T15:49:44.175Z,63.40
2018-03-04T15:52:11.796Z,70.90
2018-03-04T15:54:39.350Z,68.13
2018-03-04T15:57:06.938Z,71.53
2018-03-04T15:59:34.475Z,71.40
2018-03-04T16:02:02.018Z,73.83
2018-03-04T16:04:30.445Z,70.07
2018-03-04T16:06:57.943Z,71.27
2018-03-04T16:09:25.491Z,75.90
2018-03-04T16:11:53.146Z,65.57
2018-03-04T16:14:20.695Z,70.13
2018-03-04T16:16:49.016Z,71.80
2018-03-04T16:19:16.685Z,62.27
2018-03-04T16:21:44.830Z,69.07
2018-03-04T16:24:12.397Z,73.50
2018-03-04T16:26:40.693Z,89.97
2018-03-04T16:29:09.025Z,70.30
2018-03-04T16:31:36.587Z,64.57
2018-03-04T16:34:04.189Z,73.27
2018-03-04T16:36:31.727Z,69.67
2018-03-04T16:38:59.284Z,66.70
2018-03-04T16:41:27.586Z,74.90
2018-03-04T16:43:55.219Z,62.70
2018-03-04T16:46:22.813Z,68.37
2018-03-04T16:48:51.202Z,79.47
2018-03-04T16:51:19.633Z,65.53
2018-03-04T16:53:47.271Z,70.10
2018-03-04T16:56:15.817Z,67.43
2018-03-04T16:58:43.766Z,69.90
2018-03-04T17:01:11.354Z,63.00
2018-03-04T17:03:39.012Z,68.60
2018-03-04T17:06:06.690Z,68.87
2018-03-04T17:08:34.357Z,72.13
2018-03-04T17:11:01.923Z,62.13
2018-03-04T17:13:30.636Z,67.77
2018-03-04T17:15:58.224Z,64.60
2018-03-04T17:18:25.931Z,63.90
2018-03-04T17:20:53.650Z,61.23
2018-03-04T17:23:21.331Z,62.40
2018-03-04T17:25:49.461Z,60.83
2018-03-04T17:28:17.044Z,60.53
2018-03-04T17:30:44.613Z,69.53
2018-03-04T17:33:12.170Z,58.80
2018-03-04T17:35:39.754Z,62.10
2018-03-04T17:38:07.474Z,64.23
2018-03-04T17:40:35.061Z,52.60
2018-03-04T17:43:02.632Z,60.93
2018-03-04T17:45:30.225Z,59.33
2018-03-04T17:47:58.039Z,56.20
2018-03-04T17:50:26.516Z,53.13
2018-03-04T17:52:54.122Z,53.63
2018-03-04T17:55:22.296Z,55.77
2018-03-04T17:57:50.658Z,52.67
2018-03-04T18:00:18.194Z,54.90
2018-03-04T18:02:45.762Z,60.33
2018-03-04T18:05:13.482Z,53.43
2018-03-04T18:07:41.801Z,44.60
2018-03-04T18:10:10.191Z,58.43
2018-03-04T18:12:38.551Z,56.03
2018-03-04T18:15:06.086Z,53.53
2018-03-04T18:17:34.556Z,54.50
2018-03-04T18:20:02.121Z,60.50
2018-03-04T18:22:29.796Z,56.63
2018-03-04T18:24:57.361Z,55.50
2018-03-04T18:27:24.990Z,53.00
2018-03-04T18:29:52.600Z,64.93
2018-03-04T18:32:20.920Z,59.90
2018-03-04T18:34:48.588Z,52.43
2018-03-04T18:37:16.480Z,53.47
2018-03-04T18:39:44.038Z,56.20
2018-03-04T18:42:11.938Z,62.87
2018-03-04T18:44:39.530Z,53.07
2018-03-04T18:47:07.224Z,55.27
2018-03-04T18:49:35.528Z,65.43
2018-03-04T18:52:04.297Z,61.80
2018-03-04T18:54:31.888Z,55.67
2018-03-04T18:57:00.309Z,63.03
2018-03-04T18:59:27.896Z,58.10
2018-03-04T19:01:55.508Z,66.10
2018-03-04T19:04:23.349Z,70.13
2018-03-04T19:06:50.952Z,62.10
2018-03-04T19:09:18.575Z,69.20
2018-03-04T19:11:46.152Z,61.43
2018-03-04T19:14:13.712Z,67.80
2018-03-04T19:16:41.362Z,66.47
2018-03-04T19:19:09.070Z,65.20
2018-03-04T19:21:36.798Z,65.90
2018-03-04T19:24:04.366Z,72.87
2018-03-04T19:26:31.975Z,67.53
2018-03-04T19:29:00.275Z,68.20
2018-03-04T19:31:27.873Z,63.55
2018-03-04T19:33:55.735Z,60.13
2018-03-04T19:36:23.298Z,68.93
2018-03-04T19:38:50.906Z,66.07
2018-03-04T19:41:18.706Z,72.25
2018-03-04T19:43:46.518Z,65.90
2018-03-04T19:46:15.242Z,61.23
2018-03-04T19:48:43.210Z,66.30
2018-03-04T19:51:11.055Z,75.53
2018-03-04T19:53:40.708Z,67.50
2018-03-04T19:56:08.493Z,73.47
2018-03-04T19:58:36.296Z,73.87
2018-03-04T20:01:05.983Z,63.15
2018-03-04T20:03:34.484Z,70.78
2018-03-04T20:06:02.176Z,69.47
2018-03-04T20:08:29.784Z,66.33
2018-03-04T20:10:57.386Z,74.30
2018-03-04T20:13:25.275Z,64.10
2018-03-04T20:15:52.903Z,74.55
2018-03-04T20:18:20.823Z,72.20
2018-03-04T20:20:48.493Z,74.13
2018-03-04T20:23:16.287Z,73.30
2018-03-04T20:25:46.144Z,68.03
2018-03-04T20:30:47.831Z,70.10
2018-03-04T20:33:15.703Z,72.20
2018-03-04T20:35:43.466Z,68.62
2018-03-04T20:38:11.249Z,76.45
2018-03-04T20:40:38.894Z,80.57
2018-03-04T20:43:06.795Z,75.75
2018-03-04T20:45:34.567Z,69.87
2018-03-04T20:48:02.478Z,69.53
2018-03-04T20:50:30.538Z,70.25
2018-03-04T20:52:58.412Z,78.03
2018-03-04T20:55:26.299Z,70.30
2018-03-04T20:57:54.172Z,68.18
2018-03-04T21:00:22.049Z,67.18
2018-03-04T21:02:49.703Z,67.10
2018-03-04T21:05:17.810Z,83.95
2018-03-04T21:07:45.793Z,71.75
2018-03-04T21:10:13.603Z,74.43
2018-03-04T21:12:41.393Z,80.65
2018-03-04T21:15:09.741Z,70.18
2018-03-04T21:17:37.408Z,73.28
2018-03-04T21:20:05.006Z,67.85
2018-03-04T21:22:32.692Z,61.22
2018-03-04T21:25:00.529Z,70.32
2018-03-04T21:27:28.308Z,69.60
2018-03-04T21:29:55.897Z,68.93
2018-03-04T21:32:23.490Z,69.47
2018-03-04T21:34:51.081Z,72.00
2018-03-04T21:37:20.546Z,70.32
2018-03-04T21:39:48.108Z,63.03
2018-03-04T21:42:15.634Z,65.32
2018-03-04T21:44:44.536Z,62.88
2018-03-04T21:47:13.065Z,62.38
2018-03-04T21:49:40.718Z,77.15
2018-03-04T21:52:09.155Z,80.07
2018-03-04T21:54:36.665Z,69.72
2018-03-04T21:57:04.296Z,71.82
2018-03-04T21:59:31.968Z,60.00
2018-03-04T22:01:59.525Z,66.05
2018-03-04T22:04:27.142Z,65.67
2018-03-04T22:06:54.756Z,82.30
2018-03-04T22:09:23.032Z,74.77
2018-03-04T22:11:50.619Z,78.17
2018-03-04T22:14:18.878Z,79.03
2018-03-04T22:16:46.511Z,72.00
2018-03-04T22:19:14.086Z,66.40
2018-03-04T22:21:41.660Z,74.53
2018-03-04T22:24:09.152Z,69.50
2018-03-04T22:26:36.798Z,72.50
2018-03-04T22:29:04.302Z,75.50
2018-03-04T22:31:32.562Z,67.90
2018-03-04T22:34:00.119Z,71.60
2018-03-04T22:36:27.661Z,74.63
2018-03-04T22:38:55.940Z,72.43
2018-03-04T22:41:23.552Z,74.80
2018-03-04T22:43:51.124Z,64.17
2018-03-04T22:46:18.620Z,59.00
2018-03-04T22:48:46.318Z,66.53
2018-03-04T22:51:14.585Z,63.50
2018-03-04T22:53:42.243Z,69.23
2018-03-04T22:56:09.787Z,65.07
2018-03-04T22:58:37.291Z,74.28
2018-03-04T23:01:04.894Z,63.30
2018-03-04T23:03:32.394Z,66.67
2018-03-04T23:06:00.670Z,65.13
2018-03-04T23:08:28.994Z,68.43
2018-03-04T23:10:56.545Z,65.72
2018-03-04T23:13:24.809Z,57.90
2018-03-04T23:15:53.099Z,65.57
2018-03-04T23:18:20.596Z,62.70
2018-03-04T23:20:48.175Z,64.25
2018-03-04T23:23:15.811Z,75.40
2018-03-04T23:25:43.388Z,67.23
2018-03-04T23:28:11.704Z,70.00
2018-03-04T23:30:39.965Z,73.85
2018-03-04T23:33:08.228Z,64.62
2018-03-04T23:35:35.958Z,69.22
2018-03-04T23:38:03.478Z,60.47
2018-03-04T23:40:31.045Z,66.43
2018-03-04T23:42:58.557Z,61.78
2018-03-04T23:45:26.845Z,66.43
2018-03-04T23:47:55.321Z,68.35
2018-03-04T23:50:22.838Z,56.17
2018-03-04T23:52:50.383Z,58.92
2018-03-04T23:55:17.913Z,66.75
2018-03-04T23:57:45.523Z,67.32
